createdAt,value
2019-04-16T00:00:14.990Z,2.40
2019-04-16T00:05:13.776Z,2.15
2019-04-16T00:10:10.714Z,2.05
2019-04-16T00:15:08.230Z,1.97
2019-04-16T00:20:06.770Z,1.85
2019-04-16T00:25:05.180Z,1.93
2019-04-16T00:30:05.283Z,1.72
2019-04-16T00:35:03.634Z,1.62
2019-04-16T00:40:00.597Z,1.51
2019-04-16T00:44:57.646Z,1.57
2019-04-16T00:49:57.546Z,1.65
2019-04-16T00:54:53.500Z,1.67
2019-04-16T00:59:55.058Z,1.65
2019-04-16T01:04:49.485Z,1.62
2019-04-16T01:09:46.411Z,1.63
2019-04-16T01:14:43.107Z,1.63
2019-04-16T01:19:41.220Z,1.66
2019-04-16T01:24:38.424Z,1.33
2019-04-16T01:29:35.411Z,1.51
2019-04-16T01:34:32.413Z,1.41
2019-04-16T01:39:40.351Z,1.16
2019-04-16T01:44:37.300Z,1.22
2019-04-16T01:49:34.024Z,0.92
2019-04-16T01:54:30.715Z,0.86
2019-04-16T01:59:27.444Z,0.94
2019-04-16T02:04:24.224Z,0.86
2019-04-16T02:09:22.788Z,0.86
2019-04-16T02:14:22.300Z,0.74
2019-04-16T02:19:18.295Z,0.80
2019-04-16T02:24:18.572Z,0.67
2019-04-16T02:29:13.722Z,0.62
2019-04-16T02:34:10.357Z,0.50
2019-04-16T02:39:07.374Z,0.57
2019-04-16T02:44:04.056Z,0.60
2019-04-16T02:49:01.316Z,0.45
2019-04-16T02:54:01.430Z,0.55
2019-04-16T02:59:00.377Z,0.47
2019-04-16T03:03:58.870Z,0.38
2019-04-16T03:08:55.595Z,0.33
2019-04-16T03:13:52.860Z,0.31
2019-04-16T03:18:52.719Z,0.16
2019-04-16T03:23:49.414Z,0.11
2019-04-16T03:28:46.256Z,0.13
2019-04-16T03:33:50.566Z,0.09
2019-04-16T03:38:43.817Z,0.06
2019-04-16T03:43:40.557Z,0.19
2019-04-16T03:48:37.306Z,0.12
2019-04-16T03:53:34.006Z,0.02
2019-04-16T03:58:31.680Z,-0.08
2019-04-16T04:03:28.365Z,0.23
2019-04-16T04:08:25.471Z,0.13
2019-04-16T04:13:22.259Z,0.10
2019-04-16T04:18:19.411Z,0.04
2019-04-16T04:23:16.132Z,0.19
2019-04-16T04:28:18.751Z,0.23
2019-04-16T04:33:15.351Z,0.27
2019-04-16T04:38:12.122Z,0.78
2019-04-16T04:43:08.974Z,1.60
2019-04-16T04:48:05.752Z,2.25
2019-04-16T04:53:02.488Z,2.68
2019-04-16T04:58:02.488Z,3.29
2019-04-16T05:02:57.965Z,4.09
2019-04-16T05:07:59.756Z,4.87
2019-04-16T05:12:55.166Z,5.31
2019-04-16T05:17:52.375Z,5.89
2019-04-16T05:22:53.619Z,6.89
2019-04-16T05:27:49.507Z,7.25
2019-04-16T05:32:46.516Z,7.71
2019-04-16T05:37:43.667Z,7.95
2019-04-16T05:42:40.751Z,8.52
2019-04-16T05:47:37.892Z,8.89
2019-04-16T05:52:35.871Z,9.23
2019-04-16T05:57:35.524Z,9.54
2019-04-16T06:02:32.452Z,9.71
2019-04-16T06:07:29.702Z,10.14
2019-04-16T06:12:28.241Z,10.08
2019-04-16T06:17:45.699Z,10.09
2019-04-16T06:23:02.315Z,9.71
2019-04-16T06:28:21.090Z,9.64
2019-04-16T06:33:26.111Z,9.13
2019-04-16T06:38:28.780Z,9.32
2019-04-16T06:43:29.406Z,9.35
2019-04-16T06:48:27.979Z,9.98
2019-04-16T06:53:30.057Z,10.17
2019-04-16T06:58:49.855Z,10.00
2019-04-16T07:04:00.941Z,10.36
2019-04-16T07:09:20.579Z,10.63
2019-04-16T07:14:17.471Z,11.76
2019-04-16T07:19:16.735Z,11.61
2019-04-16T07:24:13.921Z,11.43
2019-04-16T07:29:12.998Z,12.02
2019-04-16T07:34:31.012Z,13.09
2019-04-16T07:39:46.596Z,13.60
2019-04-16T07:44:49.717Z,14.06
2019-04-16T07:49:46.602Z,13.58
2019-04-16T07:55:01.741Z,14.24
2019-04-16T07:59:58.712Z,13.39
2019-04-16T08:04:57.785Z,13.63
2019-04-16T08:10:00.718Z,13.81
2019-04-16T08:14:55.751Z,13.93
2019-04-16T08:19:55.296Z,14.41
2019-04-16T08:24:57.206Z,14.56
2019-04-16T08:29:50.587Z,14.44
2019-04-16T08:34:48.146Z,15.09
2019-04-16T08:39:45.218Z,14.93
2019-04-16T08:44:45.599Z,15.61
2019-04-16T08:49:55.517Z,15.68
2019-04-16T08:54:55.775Z,16.17
2019-04-16T08:59:52.848Z,15.56
2019-04-16T09:04:49.999Z,14.13
2019-04-16T09:09:48.980Z,14.88
2019-04-16T09:14:47.997Z,15.89
2019-04-16T09:20:49.200Z,15.23
2019-04-16T09:26:13.458Z,15.52
2019-04-16T09:31:03.640Z,14.89
2019-04-16T09:36:20.408Z,14.27
2019-04-16T09:41:19.803Z,15.39
2019-04-16T09:46:21.881Z,16.65
2019-04-16T09:51:20.560Z,17.31
2019-04-16T09:56:29.379Z,17.48
2019-04-16T10:01:31.465Z,17.84
2019-04-16T10:06:30.429Z,17.99
2019-04-16T10:11:43.402Z,18.00
2019-04-16T10:16:43.376Z,18.91
2019-04-16T10:21:45.050Z,18.61
2019-04-16T10:26:46.770Z,18.46
2019-04-16T10:31:41.709Z,17.70
2019-04-16T10:36:40.198Z,18.20
2019-04-16T10:41:39.132Z,18.13
2019-04-16T10:46:42.706Z,17.74
2019-04-16T10:51:50.470Z,17.72
2019-04-16T10:57:06.134Z,17.70
2019-04-16T11:02:10.874Z,18.36
2019-04-16T11:07:45.339Z,18.87
2019-04-16T11:12:14.044Z,19.07
2019-04-16T11:17:12.050Z,18.61
2019-04-16T11:22:24.226Z,18.92
2019-04-16T11:27:27.652Z,18.79
2019-04-16T11:32:26.564Z,19.06
2019-04-16T11:37:23.856Z,18.64
2019-04-16T11:42:21.252Z,18.33
2019-04-16T11:47:27.854Z,18.53
2019-04-16T11:52:21.265Z,18.35
2019-04-16T11:57:18.363Z,18.56
2019-04-16T12:02:18.199Z,18.61
2019-04-16T12:07:38.049Z,18.26
2019-04-16T12:12:42.636Z,17.67
2019-04-16T12:18:12.044Z,18.18
2019-04-16T12:23:27.143Z,18.40
2019-04-16T12:28:42.355Z,18.26
2019-04-16T12:33:41.785Z,18.00
2019-04-16T12:38:43.662Z,17.69
2019-04-16T12:43:50.615Z,18.40
2019-04-16T12:48:49.046Z,18.08
2019-04-16T12:53:53.416Z,18.25
2019-04-16T12:58:54.400Z,17.99
2019-04-16T13:03:56.341Z,17.37
2019-04-16T13:08:53.757Z,17.30
2019-04-16T13:14:10.237Z,17.00
2019-04-16T13:19:14.988Z,16.93
2019-04-16T13:24:20.099Z,16.65
2019-04-16T13:29:19.003Z,16.49
2019-04-16T13:34:18.632Z,16.14
2019-04-16T13:39:29.262Z,15.65
2019-04-16T13:44:44.203Z,14.62
2019-04-16T13:49:43.664Z,14.77
2019-04-16T13:54:44.395Z,14.69
2019-04-16T13:59:53.400Z,14.15
2019-04-16T14:04:50.599Z,14.25
2019-04-16T14:09:47.757Z,14.16
2019-04-16T14:14:46.650Z,13.85
2019-04-16T14:19:45.736Z,13.40
2019-04-16T14:24:42.996Z,13.18
2019-04-16T14:29:40.103Z,12.39
2019-04-16T14:34:47.990Z,12.12
2019-04-16T14:39:49.623Z,12.30
2019-04-16T14:44:53.306Z,12.45
2019-04-16T14:49:52.109Z,12.62
2019-04-16T14:54:51.176Z,12.19
2019-04-16T14:59:53.366Z,11.26
2019-04-16T15:05:02.837Z,11.03
2019-04-16T15:10:10.716Z,10.86
2019-04-16T15:15:13.675Z,10.66
2019-04-16T15:20:25.446Z,10.77
2019-04-16T15:25:26.234Z,9.64
2019-04-16T15:30:30.209Z,9.42
2019-04-16T15:35:29.165Z,8.95
2019-04-16T15:40:28.079Z,8.02
2019-04-16T15:45:39.366Z,8.30
2019-04-16T15:50:42.291Z,7.91
2019-04-16T15:55:56.319Z,7.31
2019-04-16T16:00:56.431Z,7.29
2019-04-16T16:05:55.419Z,7.73
2019-04-16T16:11:00.176Z,7.42
2019-04-16T16:15:57.578Z,7.40
2019-04-16T16:20:55.328Z,7.58
2019-04-16T16:25:52.439Z,7.61
2019-04-16T16:30:49.676Z,7.82
2019-04-16T16:35:57.620Z,7.69
2019-04-16T16:40:49.430Z,7.85
2019-04-16T16:45:47.100Z,7.67
2019-04-16T16:50:45.093Z,7.88
2019-04-16T16:55:44.268Z,7.76
2019-04-16T17:00:43.327Z,7.54
2019-04-16T17:05:44.258Z,7.30
2019-04-16T17:10:42.628Z,7.42
2019-04-16T17:15:39.970Z,7.09
2019-04-16T17:20:38.426Z,6.90
2019-04-16T17:25:37.041Z,6.67
2019-04-16T17:30:36.259Z,6.84
2019-04-16T17:35:33.509Z,6.60
2019-04-16T17:40:32.269Z,6.73
2019-04-16T17:45:29.279Z,6.86
2019-04-16T17:50:40.485Z,6.47
2019-04-16T17:55:42.501Z,6.33
2019-04-16T18:00:50.718Z,6.58
2019-04-16T18:05:55.546Z,6.43
2019-04-16T18:11:12.653Z,6.42
2019-04-16T18:16:24.882Z,6.36
2019-04-16T18:21:25.825Z,6.55
2019-04-16T18:26:40.049Z,6.48
2019-04-16T18:31:45.429Z,6.77
2019-04-16T18:36:48.897Z,6.67
2019-04-16T18:41:50.664Z,6.86
2019-04-16T18:47:06.601Z,6.63
2019-04-16T18:52:05.348Z,6.50
2019-04-16T18:57:02.902Z,6.40
2019-04-16T19:02:08.421Z,6.06
2019-04-16T19:07:03.839Z,5.92
2019-04-16T19:12:01.102Z,6.21
2019-04-16T19:17:00.006Z,6.24
2019-04-16T19:21:57.257Z,6.55
2019-04-16T19:26:55.719Z,6.64
2019-04-16T19:31:56.701Z,6.65
2019-04-16T19:36:52.672Z,6.71
2019-04-16T19:41:52.968Z,6.69
2019-04-16T19:46:52.622Z,6.60
2019-04-16T19:51:47.992Z,6.84
2019-04-16T19:56:44.968Z,6.57
2019-04-16T20:01:42.034Z,6.61
2019-04-16T20:06:39.299Z,6.57
2019-04-16T20:11:36.922Z,6.61
2019-04-16T20:16:34.100Z,6.62
2019-04-16T20:21:31.364Z,6.35
2019-04-16T20:26:29.401Z,6.55
2019-04-16T20:31:28.636Z,6.71
2019-04-16T20:36:25.781Z,6.99
2019-04-16T20:41:22.783Z,6.94
2019-04-16T20:46:21.784Z,7.05
2019-04-16T20:51:18.789Z,6.93
2019-04-16T20:56:19.988Z,7.10
2019-04-16T21:01:15.933Z,6.79
2019-04-16T21:06:13.002Z,6.76
2019-04-16T21:11:10.114Z,6.96
2019-04-16T21:16:07.100Z,7.03
2019-04-16T21:21:04.087Z,7.12
2019-04-16T21:26:01.045Z,7.21
2019-04-16T21:30:59.975Z,7.15
2019-04-16T21:36:04.785Z,7.00
2019-04-16T21:41:00.271Z,6.87
2019-04-16T21:45:57.357Z,7.02
2019-04-16T21:50:54.460Z,7.06
2019-04-16T21:55:51.535Z,7.06
2019-04-16T22:00:48.773Z,7.07
2019-04-16T22:05:48.365Z,7.07
2019-04-16T22:10:46.680Z,6.93
2019-04-16T22:15:43.953Z,6.74
2019-04-16T22:20:43.716Z,6.56
2019-04-16T22:25:42.705Z,6.53
2019-04-16T22:30:39.830Z,6.78
2019-04-16T22:35:36.823Z,6.84
2019-04-16T22:40:35.697Z,7.10
2019-04-16T22:45:43.989Z,7.02
2019-04-16T22:50:41.071Z,6.83
2019-04-16T22:55:38.163Z,6.97
2019-04-16T23:00:36.930Z,6.97
2019-04-16T23:05:33.942Z,6.97
2019-04-16T23:10:30.913Z,7.11
2019-04-16T23:15:28.018Z,7.32
2019-04-16T23:20:29.588Z,7.37
2019-04-16T23:25:26.896Z,7.48
2019-04-16T23:30:22.758Z,7.11
2019-04-16T23:35:19.880Z,6.94
2019-04-16T23:40:16.950Z,7.29
2019-04-16T23:45:31.173Z,7.53
2019-04-16T23:50:44.718Z,7.35
2019-04-16T23:55:40.441Z,7.54
